Time;durP1;ratioP1;P1;durP2;ratioP2;P2;SDS_P1;SDS_P2;PMS_P1;PMS_P2;Temp;Humidity;BMP_temperature;BMP_pressure;BME280_temperature;BME280_humidity;BME280_pressure;Samples;Min_cycle;Max_cycle;Signal;HPM_P1;HPM_P2
2021/08/08 00:01:34;;;;;;;5.45;2.85;;;;;;;;;;5076077;28;20074;-76
2021/08/08 00:04:02;;;;;;;8.50;3.10;;;;;;;;;;5076265;28;20102;-76
2021/08/08 00:06:28;;;;;;;3.28;2.88;;;;;;;;;;5076686;28;20470;-77
2021/08/08 00:08:54;;;;;;;2.95;2.75;;;;;;;;;;5076055;28;20113;-76
2021/08/08 00:11:20;;;;;;;6.75;3.08;;;;;;;;;;5075942;28;20029;-76
2021/08/08 00:13:46;;;;;;;3.72;3.40;;;;;;;;;;5075975;28;20111;-76
2021/08/08 00:16:12;;;;;;;3.88;3.35;;;;;;;;;;5075841;28;20470;-76
2021/08/08 00:18:38;;;;;;;6.40;3.40;;;;;;;;;;5075929;28;20417;-76
2021/08/08 00:21:05;;;;;;;5.20;3.00;;;;;;;;;;5076010;28;20028;-76
2021/08/08 00:23:31;;;;;;;7.15;3.08;;;;;;;;;;5076006;28;20144;-76
2021/08/08 00:25:57;;;;;;;7.07;3.20;;;;;;;;;;5075520;28;20021;-76
2021/08/08 00:28:23;;;;;;;4.32;2.90;;;;;;;;;;5075864;28;20025;-76
2021/08/08 00:30:49;;;;;;;7.68;3.40;;;;;;;;;;5075804;28;20039;-76
2021/08/08 00:33:15;;;;;;;2.65;2.45;;;;;;;;;;5075641;28;20029;-76
2021/08/08 00:35:42;;;;;;;5.43;2.55;;;;;;;;;;5075524;28;20027;-76
2021/08/08 00:38:09;;;;;;;3.33;3.00;;;;;;;;;;5075854;28;20111;-76
2021/08/08 00:40:35;;;;;;;3.90;3.42;;;;;;;;;;5075851;28;20029;-76
2021/08/08 00:43:01;;;;;;;4.35;2.90;;;;;;;;;;5075371;28;20028;-76
2021/08/08 00:45:27;;;;;;;5.32;3.08;;;;;;;;;;5075385;28;20514;-76
2021/08/08 00:47:53;;;;;;;3.17;2.92;;;;;;;;;;5075335;28;20371;-76
2021/08/08 00:50:20;;;;;;;3.05;2.80;;;;;;;;;;5075227;28;20033;-76
2021/08/08 00:52:46;;;;;;;3.28;2.90;;;;;;;;;;5075123;28;20045;-76
2021/08/08 00:55:12;;;;;;;3.45;2.67;;;;;;;;;;5075332;28;20131;-76
2021/08/08 00:57:38;;;;;;;6.07;3.35;;;;;;;;;;5075348;28;20032;-76
2021/08/08 01:00:05;;;;;;;3.90;3.10;;;;;;;;;;5075469;28;20059;-76
2021/08/08 01:02:32;;;;;;;3.13;2.83;;;;;;;;;;5075634;28;20474;-77
2021/08/08 01:05:00;;;;;;;3.05;2.30;;;;;;;;;;5075523;28;20381;-76
2021/08/08 01:07:27;;;;;;;3.03;2.83;;;;;;;;;;5074905;28;20024;-76
2021/08/08 01:09:54;;;;;;;3.92;2.65;;;;;;;;;;5075073;28;20043;-76
2021/08/08 01:12:20;;;;;;;2.97;2.78;;;;;;;;;;5074791;28;20116;-77
2021/08/08 01:14:47;;;;;;;3.25;2.95;;;;;;;;;;5075465;28;20095;-76
2021/08/08 01:17:13;;;;;;;4.07;2.80;;;;;;;;;;5074962;28;20032;-76
2021/08/08 01:19:40;;;;;;;2.90;2.70;;;;;;;;;;5074596;28;20031;-76
2021/08/08 01:22:06;;;;;;;3.00;2.70;;;;;;;;;;5074577;28;20028;-76
2021/08/08 01:24:32;;;;;;;3.53;3.22;;;;;;;;;;5075088;28;20028;-76
2021/08/08 01:26:58;;;;;;;3.25;3.00;;;;;;;;;;5074738;28;20016;-76
2021/08/08 01:29:24;;;;;;;4.40;2.20;;;;;;;;;;5074327;28;20098;-76
2021/08/08 01:31:51;;;;;;;5.70;2.80;;;;;;;;;;5074442;28;20112;-77
2021/08/08 01:34:17;;;;;;;3.50;3.20;;;;;;;;;;5075102;28;20074;-76
2021/08/08 01:36:44;;;;;;;2.92;2.70;;;;;;;;;;5074749;28;20020;-76
2021/08/08 01:39:11;;;;;;;4.22;2.67;;;;;;;;;;5074193;28;20036;-76
2021/08/08 01:41:39;;;;;;;3.95;3.25;;;;;;;;;;5074080;28;20029;-74
2021/08/08 01:44:05;;;;;;;3.20;2.90;;;;;;;;;;5074815;28;20420;-76
2021/08/08 01:46:32;;;;;;;4.55;2.85;;;;;;;;;;5074949;28;20025;-76
2021/08/08 01:48:58;;;;;;;6.35;2.92;;;;;;;;;;5074205;28;20040;-77
2021/08/08 01:51:26;;;;;;;2.97;2.78;;;;;;;;;;5074227;28;20020;-76
2021/08/08 01:53:52;;;;;;;3.08;2.78;;;;;;;;;;5074263;28;20051;-76
2021/08/08 01:56:18;;;;;;;5.30;2.85;;;;;;;;;;5074068;28;20116;-76
2021/08/08 01:58:44;;;;;;;2.75;2.55;;;;;;;;;;5074778;28;20111;-76
2021/08/08 02:01:10;;;;;;;3.78;2.72;;;;;;;;;;5074757;28;20033;-76
2021/08/08 02:03:36;;;;;;;2.90;2.60;;;;;;;;;;5074267;28;20024;-76
2021/08/08 02:06:03;;;;;;;3.00;2.70;;;;;;;;;;5074000;28;20025;-76
2021/08/08 02:08:29;;;;;;;4.63;3.28;;;;;;;;;;5074205;28;20052;-76
2021/08/08 02:10:55;;;;;;;4.70;2.85;;;;;;;;;;5074462;28;20108;-77
2021/08/08 02:13:21;;;;;;;2.88;2.63;;;;;;;;;;5074745;28;20021;-76
2021/08/08 02:15:47;;;;;;;4.55;2.55;;;;;;;;;;5074735;28;20363;-76
2021/08/08 02:18:13;;;;;;;3.47;2.50;;;;;;;;;;5074567;28;20078;-76
2021/08/08 02:20:39;;;;;;;3.83;2.72;;;;;;;;;;5074287;28;20024;-76
2021/08/08 02:23:05;;;;;;;3.85;2.78;;;;;;;;;;5074443;28;20028;-77
2021/08/08 02:25:31;;;;;;;3.05;2.75;;;;;;;;;;5073920;28;20025;-76
2021/08/08 02:27:57;;;;;;;3.17;2.97;;;;;;;;;;5073675;28;20058;-76
2021/08/08 02:30:23;;;;;;;3.35;3.05;;;;;;;;;;5073615;28;20498;-76
2021/08/08 02:32:49;;;;;;;3.67;3.20;;;;;;;;;;5074028;28;20470;-76
2021/08/08 02:35:15;;;;;;;4.78;2.80;;;;;;;;;;5074219;28;20417;-76
2021/08/08 02:37:42;;;;;;;3.22;2.92;;;;;;;;;;5074167;28;20044;-76
2021/08/08 02:40:08;;;;;;;3.28;2.97;;;;;;;;;;5073825;28;20073;-76
2021/08/08 02:42:34;;;;;;;2.88;2.65;;;;;;;;;;5073607;28;20028;-76
2021/08/08 02:45:00;;;;;;;2.60;2.40;;;;;;;;;;5074031;28;20045;-76
2021/08/08 02:47:29;;;;;;;4.10;3.08;;;;;;;;;;5073880;28;20024;-77
2021/08/08 02:49:55;;;;;;;3.50;3.20;;;;;;;;;;5074716;28;20119;-76
2021/08/08 02:52:21;;;;;;;3.95;3.15;;;;;;;;;;5077540;28;20032;-76
2021/08/08 02:54:47;;;;;;;3.35;3.05;;;;;;;;;;5077730;28;20052;-76
2021/08/08 02:57:13;;;;;;;4.50;2.95;;;;;;;;;;5077420;28;20028;-76
2021/08/08 02:59:39;;;;;;;5.43;2.95;;;;;;;;;;5077781;28;20025;-77
2021/08/08 03:02:06;;;;;;;5.30;2.80;;;;;;;;;;5077166;28;20046;-77
2021/08/08 03:04:32;;;;;;;3.13;2.92;;;;;;;;;;5077336;28;20450;-76
2021/08/08 03:06:59;;;;;;;4.53;3.22;;;;;;;;;;5077226;28;20028;-76
2021/08/08 03:09:25;;;;;;;7.28;2.80;;;;;;;;;;5077184;28;20032;-76
2021/08/08 03:11:51;;;;;;;3.33;3.03;;;;;;;;;;5076852;28;20115;-75
2021/08/08 03:14:17;;;;;;;3.22;2.85;;;;;;;;;;5077581;28;20471;-76
2021/08/08 03:16:43;;;;;;;6.25;2.78;;;;;;;;;;5077171;28;20024;-76
2021/08/08 03:19:10;;;;;;;2.67;2.47;;;;;;;;;;5077124;28;20059;-76
2021/08/08 03:21:37;;;;;;;5.43;4.10;;;;;;;;;;5077168;28;20032;-76
2021/08/08 03:24:03;;;;;;;3.30;2.70;;;;;;;;;;5077013;28;20481;-77
2021/08/08 03:26:29;;;;;;;2.85;2.65;;;;;;;;;;5077064;28;20025;-76
2021/08/08 03:28:55;;;;;;;2.58;2.38;;;;;;;;;;5076957;28;20036;-76
2021/08/08 03:31:21;;;;;;;3.25;2.20;;;;;;;;;;5076793;28;20059;-76
2021/08/08 03:33:47;;;;;;;5.32;2.40;;;;;;;;;;5076855;28;20561;-76
2021/08/08 03:36:14;;;;;;;2.50;2.20;;;;;;;;;;5076764;28;20021;-76
2021/08/08 03:38:40;;;;;;;3.97;2.22;;;;;;;;;;5076849;28;20102;-76
2021/08/08 03:41:06;;;;;;;2.55;2.20;;;;;;;;;;5076608;28;20029;-76
2021/08/08 03:43:32;;;;;;;3.92;2.25;;;;;;;;;;5076928;28;20470;-76
2021/08/08 03:45:58;;;;;;;3.38;2.03;;;;;;;;;;5076502;28;20025;-76
2021/08/08 03:48:24;;;;;;;2.65;2.22;;;;;;;;;;5076406;28;20035;-76
2021/08/08 03:50:50;;;;;;;3.80;2.05;;;;;;;;;;5076374;28;20033;-76
2021/08/08 03:53:16;;;;;;;3.67;1.90;;;;;;;;;;5075981;28;20374;-76
2021/08/08 03:55:42;;;;;;;3.90;2.20;;;;;;;;;;5076695;28;20434;-76
2021/08/08 03:58:08;;;;;;;1.80;1.70;;;;;;;;;;5076387;28;20025;-76
2021/08/08 04:00:34;;;;;;;1.90;1.73;;;;;;;;;;5075872;28;20031;-76
2021/08/08 04:03:00;;;;;;;2.22;2.03;;;;;;;;;;5076176;28;20033;-75
2021/08/08 04:05:26;;;;;;;2.13;1.73;;;;;;;;;;5076029;28;20032;-76
2021/08/08 04:07:52;;;;;;;1.80;1.70;;;;;;;;;;5076055;28;20043;-76
2021/08/08 04:10:18;;;;;;;2.80;1.42;;;;;;;;;;5075928;28;20043;-76
2021/08/08 04:12:44;;;;;;;1.77;1.67;;;;;;;;;;5076278;28;20043;-76
2021/08/08 04:15:11;;;;;;;4.90;1.58;;;;;;;;;;5075734;28;20059;-76
2021/08/08 04:17:37;;;;;;;1.90;1.67;;;;;;;;;;5075876;28;20033;-76
2021/08/08 04:20:03;;;;;;;7.50;1.60;;;;;;;;;;5076169;28;20493;-76
2021/08/08 04:22:29;;;;;;;1.75;1.48;;;;;;;;;;5075910;28;20078;-76
2021/08/08 04:24:55;;;;;;;1.95;1.52;;;;;;;;;;5075583;28;20061;-76
2021/08/08 04:27:21;;;;;;;1.92;1.67;;;;;;;;;;5076295;28;20547;-76
2021/08/08 04:29:47;;;;;;;7.43;1.77;;;;;;;;;;5076267;28;20471;-76
2021/08/08 04:32:13;;;;;;;1.52;1.42;;;;;;;;;;5075707;28;20070;-76
2021/08/08 04:34:39;;;;;;;3.38;1.73;;;;;;;;;;5075785;28;20541;-76
2021/08/08 04:37:05;;;;;;;3.58;1.70;;;;;;;;;;5075420;28;20025;-76
2021/08/08 04:39:31;;;;;;;1.40;1.30;;;;;;;;;;5075341;28;20029;-76
2021/08/08 04:41:58;;;;;;;1.73;1.52;;;;;;;;;;5075792;28;20021;-76
2021/08/08 04:44:24;;;;;;;1.75;1.63;;;;;;;;;;5075222;28;20028;-76
2021/08/08 04:46:50;;;;;;;1.08;1.00;;;;;;;;;;5075394;28;20027;-76
2021/08/08 04:49:17;;;;;;;1.80;1.70;;;;;;;;;;5075295;28;20036;-76
2021/08/08 04:51:43;;;;;;;1.92;1.58;;;;;;;;;;5074982;28;20024;-76
2021/08/08 04:54:09;;;;;;;2.00;1.80;;;;;;;;;;5075652;28;20049;-76
2021/08/08 04:56:35;;;;;;;1.08;0.98;;;;;;;;;;5075637;28;20526;-76
2021/08/08 04:59:01;;;;;;;5.60;1.50;;;;;;;;;;5075039;28;20473;-76
2021/08/08 05:01:27;;;;;;;1.50;1.40;;;;;;;;;;5075386;28;20081;-75
2021/08/08 05:03:53;;;;;;;1.30;1.20;;;;;;;;;;5075108;28;20026;-76
2021/08/08 05:06:19;;;;;;;1.30;1.20;;;;;;;;;;5074922;28;20036;-76
2021/08/08 05:08:45;;;;;;;1.52;1.30;;;;;;;;;;5074851;28;20454;-76
2021/08/08 05:11:19;;;;;;;1.35;1.25;;;;;;;;;;5075605;28;20442;-75
2021/08/08 05:13:45;;;;;;;1.38;1.27;;;;;;;;;;5074368;28;20029;-76
2021/08/08 05:16:11;;;;;;;1.90;1.42;;;;;;;;;;5074810;28;20103;-76
2021/08/08 05:18:37;;;;;;;17.38;2.63;;;;;;;;;;5074529;28;20024;-75
2021/08/08 05:21:03;;;;;;;1.50;1.40;;;;;;;;;;5074573;28;20017;-76
2021/08/08 05:23:29;;;;;;;2.30;1.60;;;;;;;;;;5074733;28;20421;-76
2021/08/08 05:25:59;;;;;;;2.30;1.50;;;;;;;;;;5074592;28;20111;-76
2021/08/08 05:28:25;;;;;;;1.67;1.42;;;;;;;;;;5065723;28;20055;-77
2021/08/08 05:30:52;;;;;;;1.70;1.23;;;;;;;;;;5070467;28;20398;-77
2021/08/08 05:33:18;;;;;;;1.13;1.02;;;;;;;;;;5053824;28;20031;-75
2021/08/08 05:35:44;;;;;;;1.52;1.33;;;;;;;;;;5053497;28;20029;-76
2021/08/08 05:38:10;;;;;;;12.93;1.48;;;;;;;;;;5052747;28;20028;-76
2021/08/08 05:40:36;;;;;;;3.78;1.20;;;;;;;;;;5053275;28;20459;-77
2021/08/08 05:43:02;;;;;;;1.35;1.25;;;;;;;;;;5053320;28;20044;-76
2021/08/08 05:45:28;;;;;;;1.23;1.10;;;;;;;;;;5052680;28;20029;-74
2021/08/08 05:47:55;;;;;;;1.73;1.48;;;;;;;;;;5053717;28;20024;-78
2021/08/08 05:50:21;;;;;;;1.95;1.40;;;;;;;;;;5052888;28;20033;-76
2021/08/08 05:52:48;;;;;;;1.35;1.17;;;;;;;;;;5051269;28;20575;-76
2021/08/08 05:55:14;;;;;;;1.30;1.20;;;;;;;;;;5053675;28;20142;-77
2021/08/08 05:57:40;;;;;;;1.63;1.40;;;;;;;;;;5053356;28;20037;-75
2021/08/08 06:00:07;;;;;;;1.20;1.10;;;;;;;;;;5052825;28;20017;-77
2021/08/08 06:02:33;;;;;;;1.52;1.40;;;;;;;;;;5065794;28;20044;-77
2021/08/08 06:04:59;;;;;;;6.65;1.75;;;;;;;;;;5069403;28;20047;-77
2021/08/08 06:07:25;;;;;;;1.48;1.20;;;;;;;;;;5067308;28;20592;-76
2021/08/08 06:09:51;;;;;;;1.45;1.35;;;;;;;;;;5065051;28;20440;-76
2021/08/08 06:12:17;;;;;;;1.20;1.10;;;;;;;;;;5065941;28;20116;-76
2021/08/08 06:14:43;;;;;;;1.20;1.10;;;;;;;;;;5073230;28;20028;-80
2021/08/08 06:17:09;;;;;;;2.35;1.30;;;;;;;;;;5073682;28;20107;-77
2021/08/08 06:19:35;;;;;;;1.52;1.10;;;;;;;;;;5073102;28;20086;-81
2021/08/08 06:22:01;;;;;;;1.60;1.42;;;;;;;;;;5069232;28;20103;-79
2021/08/08 06:24:27;;;;;;;1.08;0.98;;;;;;;;;;5075284;28;20032;-76
2021/08/08 06:26:56;;;;;;;2.00;1.52;;;;;;;;;;5078929;28;20431;-75
2021/08/08 06:29:22;;;;;;;1.10;1.00;;;;;;;;;;5076980;28;20052;-73
2021/08/08 06:31:49;;;;;;;1.58;1.30;;;;;;;;;;5066818;28;20028;-73
2021/08/08 06:34:15;;;;;;;1.52;1.33;;;;;;;;;;5056642;28;20021;-74
2021/08/08 06:36:42;;;;;;;4.03;1.23;;;;;;;;;;5056710;28;20036;-76
2021/08/08 06:39:08;;;;;;;2.17;1.38;;;;;;;;;;5057392;28;20043;-76
2021/08/08 06:41:34;;;;;;;1.52;1.27;;;;;;;;;;5056375;28;20021;-76
2021/08/08 06:44:00;;;;;;;1.48;1.17;;;;;;;;;;5057400;28;20463;-76
2021/08/08 06:46:26;;;;;;;2.42;2.10;;;;;;;;;;5057116;28;20024;-78
2021/08/08 06:48:52;;;;;;;3.92;1.88;;;;;;;;;;5057011;28;20025;-74
2021/08/08 06:51:18;;;;;;;1.58;1.48;;;;;;;;;;5056694;28;20390;-74
2021/08/08 06:53:44;;;;;;;1.40;1.30;;;;;;;;;;5057359;28;20053;-73
2021/08/08 06:56:10;;;;;;;2.53;2.22;;;;;;;;;;5057367;28;20029;-76
2021/08/08 06:58:37;;;;;;;9.68;2.33;;;;;;;;;;5055729;28;20385;-76
2021/08/08 07:01:03;;;;;;;4.75;1.40;;;;;;;;;;5056559;28;20021;-77
2021/08/08 07:03:29;;;;;;;2.83;1.90;;;;;;;;;;5055982;28;20527;-77
2021/08/08 07:05:55;;;;;;;5.60;2.10;;;;;;;;;;5056162;28;20470;-76
2021/08/08 07:08:21;;;;;;;2.08;1.63;;;;;;;;;;5055755;28;20497;-76
2021/08/08 07:10:47;;;;;;;3.97;1.98;;;;;;;;;;5056640;28;20021;-76
2021/08/08 07:13:13;;;;;;;6.18;2.30;;;;;;;;;;5050897;28;20103;-81
2021/08/08 07:15:40;;;;;;;3.78;2.58;;;;;;;;;;5069568;28;20431;-74
2021/08/08 07:18:06;;;;;;;5.40;2.05;;;;;;;;;;5073523;28;20028;-77
2021/08/08 07:20:32;;;;;;;4.53;1.77;;;;;;;;;;5074293;28;20052;-77
2021/08/08 07:22:58;;;;;;;5.85;2.10;;;;;;;;;;5074295;28;20475;-77
2021/08/08 07:25:24;;;;;;;5.70;2.33;;;;;;;;;;5075248;28;20025;-77
2021/08/08 07:27:50;;;;;;;5.78;1.75;;;;;;;;;;5074238;28;20031;-78
2021/08/08 07:30:16;;;;;;;5.28;2.35;;;;;;;;;;5076567;28;20112;-77
2021/08/08 07:32:42;;;;;;;8.95;2.20;;;;;;;;;;5076350;28;20025;-78
2021/08/08 07:35:09;;;;;;;6.22;1.75;;;;;;;;;;5075513;28;20024;-78
2021/08/08 07:37:35;;;;;;;3.58;2.15;;;;;;;;;;5076050;28;20067;-79
2021/08/08 07:40:01;;;;;;;5.25;1.55;;;;;;;;;;5076959;28;20032;-79
2021/08/08 07:42:27;;;;;;;2.95;1.55;;;;;;;;;;5076229;28;20107;-77
2021/08/08 07:44:53;;;;;;;4.43;1.90;;;;;;;;;;5075744;28;20462;-78
2021/08/08 07:47:19;;;;;;;1.52;1.42;;;;;;;;;;5077044;28;20025;-77
2021/08/08 07:49:45;;;;;;;2.58;1.27;;;;;;;;;;5075601;28;20056;-78
2021/08/08 07:52:13;;;;;;;3.22;1.58;;;;;;;;;;5075801;28;20032;-78
2021/08/08 07:54:40;;;;;;;1.58;1.48;;;;;;;;;;5076693;28;20135;-78
2021/08/08 07:57:06;;;;;;;6.22;5.63;;;;;;;;;;5076546;28;20024;-77
2021/08/08 07:59:32;;;;;;;2.90;1.85;;;;;;;;;;5075759;28;20036;-78
2021/08/08 08:01:58;;;;;;;1.40;1.30;;;;;;;;;;5075815;28;20458;-78
2021/08/08 08:04:25;;;;;;;1.77;1.20;;;;;;;;;;5075791;28;20095;-78
2021/08/08 08:06:51;;;;;;;4.20;1.27;;;;;;;;;;5075653;28;20025;-77
2021/08/08 08:09:17;;;;;;;1.23;1.13;;;;;;;;;;5078389;28;20032;-77
2021/08/08 08:11:43;;;;;;;1.50;1.38;;;;;;;;;;5078487;28;20032;-77
2021/08/08 08:14:09;;;;;;;1.20;1.10;;;;;;;;;;5074796;28;20032;-77
2021/08/08 08:16:37;;;;;;;2.53;1.52;;;;;;;;;;5075219;28;20058;-76
2021/08/08 08:19:03;;;;;;;1.23;1.00;;;;;;;;;;5068657;28;20036;-77
2021/08/08 08:21:29;;;;;;;1.10;1.05;;;;;;;;;;5056844;28;20119;-77
2021/08/08 08:23:55;;;;;;;1.30;1.20;;;;;;;;;;5055280;28;20497;-81
2021/08/08 08:26:21;;;;;;;1.17;1.08;;;;;;;;;;5054486;28;20390;-77
2021/08/08 08:28:47;;;;;;;2.22;1.33;;;;;;;;;;5070410;28;20025;-81
2021/08/08 08:31:13;;;;;;;6.40;1.88;;;;;;;;;;5072479;28;20078;-80
2021/08/08 08:33:39;;;;;;;7.78;2.17;;;;;;;;;;5075546;28;20441;-77
2021/08/08 08:36:05;;;;;;;1.60;1.50;;;;;;;;;;5076488;28;20020;-78
2021/08/08 08:38:31;;;;;;;1.20;1.10;;;;;;;;;;5064590;28;20024;-76
2021/08/08 08:40:58;;;;;;;1.48;1.38;;;;;;;;;;5054360;28;20036;-77
2021/08/08 08:43:25;;;;;;;0.90;0.90;;;;;;;;;;5055576;28;20032;-73
2021/08/08 08:45:51;;;;;;;3.65;1.13;;;;;;;;;;5057360;28;20028;-75
2021/08/08 08:48:17;;;;;;;2.85;1.58;;;;;;;;;;5071970;28;20060;-75
2021/08/08 08:50:43;;;;;;;1.65;1.55;;;;;;;;;;5056213;28;20025;-77
2021/08/08 08:53:10;;;;;;;1.35;1.17;;;;;;;;;;5054625;28;20033;-79
2021/08/08 08:55:36;;;;;;;1.90;1.67;;;;;;;;;;5054163;28;20027;-80
2021/08/08 08:58:02;;;;;;;1.58;1.30;;;;;;;;;;5055795;28;20021;-78
2021/08/08 09:00:28;;;;;;;6.60;1.88;;;;;;;;;;5054357;28;20021;-76
2021/08/08 09:02:54;;;;;;;11.05;1.45;;;;;;;;;;5060658;28;20024;-83
2021/08/08 09:05:21;;;;;;;1.35;1.25;;;;;;;;;;5067389;28;20028;-76
2021/08/08 09:07:47;;;;;;;1.70;1.60;;;;;;;;;;5075952;28;20056;-81
2021/08/08 09:10:13;;;;;;;8.20;1.80;;;;;;;;;;5074627;28;20363;-76
2021/08/08 09:12:39;;;;;;;2.60;1.45;;;;;;;;;;5054424;28;20493;-77
2021/08/08 09:15:06;;;;;;;3.72;1.63;;;;;;;;;;5053370;28;20025;-77
2021/08/08 09:17:36;;;;;;;1.58;1.45;;;;;;;;;;5053983;28;20025;-76
2021/08/08 09:20:04;;;;;;;2.17;1.63;;;;;;;;;;5055586;28;20017;-76
2021/08/08 09:22:30;;;;;;;5.70;1.65;;;;;;;;;;5071123;28;20025;-77
2021/08/08 09:24:57;;;;;;;4.10;1.60;;;;;;;;;;5072714;28;20024;-77
2021/08/08 09:27:29;;;;;;;2.75;1.00;;;;;;;;;;5060666;28;20100;-79
2021/08/08 09:29:55;;;;;;;1.40;1.30;;;;;;;;;;5066061;28;20037;-77
2021/08/08 09:32:22;;;;;;;1.45;1.35;;;;;;;;;;5068089;28;20107;-77
2021/08/08 09:34:54;;;;;;;1.65;1.35;;;;;;;;;;5058279;28;20029;-75
2021/08/08 09:37:22;;;;;;;3.97;1.38;;;;;;;;;;5059202;28;20021;-78
2021/08/08 09:39:52;;;;;;;1.98;1.35;;;;;;;;;;5075218;28;20032;-76
2021/08/08 09:42:24;;;;;;;1.50;1.20;;;;;;;;;;5074640;28;20074;-75
2021/08/08 09:44:51;;;;;;;1.25;1.10;;;;;;;;;;5073794;28;20032;-76
2021/08/08 09:47:18;;;;;;;5.30;1.67;;;;;;;;;;5073295;28;20450;-75
2021/08/08 09:49:44;;;;;;;3.47;1.73;;;;;;;;;;5071450;28;20041;-79
2021/08/08 09:52:10;;;;;;;4.97;1.90;;;;;;;;;;5073136;28;20475;-79
2021/08/08 09:54:37;;;;;;;2.58;1.83;;;;;;;;;;5069081;28;20053;-78
2021/08/08 09:57:03;;;;;;;1.55;1.45;;;;;;;;;;5054034;28;20378;-78
2021/08/08 09:59:29;;;;;;;1.60;1.20;;;;;;;;;;5053905;28;20040;-82
2021/08/08 10:01:56;;;;;;;5.75;1.90;;;;;;;;;;5054475;28;20459;-80
2021/08/08 10:04:22;;;;;;;4.28;2.08;;;;;;;;;;5051594;28;20025;-79
2021/08/08 10:06:48;;;;;;;3.50;2.17;;;;;;;;;;5074174;28;20418;-80
2021/08/08 10:09:14;;;;;;;3.30;2.13;;;;;;;;;;5071609;28;20039;-79
2021/08/08 10:11:44;;;;;;;3.97;2.65;;;;;;;;;;5053389;28;20087;-81
2021/08/08 10:14:10;;;;;;;2.60;2.13;;;;;;;;;;5052097;28;20064;-78
2021/08/08 10:16:37;;;;;;;3.42;2.10;;;;;;;;;;5072520;28;20035;-78
2021/08/08 10:19:03;;;;;;;6.30;2.15;;;;;;;;;;5073169;28;20425;-79
2021/08/08 10:21:30;;;;;;;6.07;3.13;;;;;;;;;;5072755;28;20029;-80
2021/08/08 10:23:58;;;;;;;6.05;2.30;;;;;;;;;;5073984;28;20025;-80
2021/08/08 10:26:24;;;;;;;8.25;2.50;;;;;;;;;;5069875;28;20025;-78
2021/08/08 10:28:51;;;;;;;4.70;2.05;;;;;;;;;;5073466;28;20383;-77
2021/08/08 10:31:17;;;;;;;3.50;1.73;;;;;;;;;;5056832;28;20102;-77
2021/08/08 10:33:44;;;;;;;1.63;1.50;;;;;;;;;;5052636;28;20489;-80
2021/08/08 10:36:29;;;;;;;6.03;1.55;;;;;;;;;;5058259;28;20031;-78
2021/08/08 10:39:06;;;;;;;4.97;1.60;;;;;;;;;;5072750;28;20501;-78
2021/08/08 10:41:33;;;;;;;3.78;2.00;;;;;;;;;;5072617;28;20038;-80
2021/08/08 10:44:07;;;;;;;6.78;1.60;;;;;;;;;;5072965;28;20455;-79
2021/08/08 10:46:43;;;;;;;3.65;1.38;;;;;;;;;;5070453;28;20071;-79
2021/08/08 10:49:09;;;;;;;2.55;1.30;;;;;;;;;;5072648;28;20474;-79
2021/08/08 10:51:35;;;;;;;2.80;1.48;;;;;;;;;;5060829;28;20399;-78
2021/08/08 10:54:05;;;;;;;6.10;1.90;;;;;;;;;;5053041;28;20544;-79
2021/08/08 10:56:46;;;;;;;9.95;1.80;;;;;;;;;;5051227;28;20031;-80
2021/08/08 10:59:12;;;;;;;;;;;;;;;;;;5056593;28;20055;-78
2021/08/08 11:01:39;;;;;;;2.53;1.65;;;;;;;;;;5069200;28;19943;-78
2021/08/08 11:04:07;;;;;;;2.75;1.58;;;;;;;;;;5071425;28;20027;-76
2021/08/08 11:06:34;;;;;;;4.63;1.35;;;;;;;;;;5053525;28;20031;-75
2021/08/08 11:09:00;;;;;;;1.52;1.30;;;;;;;;;;5058745;28;20068;-76
2021/08/08 11:11:34;;;;;;;2.60;1.50;;;;;;;;;;5070410;28;20025;-75
2021/08/08 11:14:16;;;;;;;8.85;1.58;;;;;;;;;;5056119;28;20059;-76
2021/08/08 11:16:44;;;;;;;2.95;1.60;;;;;;;;;;5056021;28;20067;-76
2021/08/08 11:19:10;;;;;;;1.80;1.52;;;;;;;;;;5056431;28;20033;-76
2021/08/08 11:21:36;;;;;;;4.00;1.63;;;;;;;;;;5055936;28;20039;-76
2021/08/08 11:24:03;;;;;;;5.47;1.40;;;;;;;;;;5055872;28;20348;-76
2021/08/08 11:26:29;;;;;;;1.52;1.30;;;;;;;;;;5055902;28;20060;-76
2021/08/08 11:28:58;;;;;;;2.00;1.40;;;;;;;;;;5055790;28;20029;-76
2021/08/08 11:31:28;;;;;;;1.88;1.35;;;;;;;;;;5055955;28;20029;-76
2021/08/08 11:33:55;;;;;;;1.25;1.15;;;;;;;;;;5055934;28;20060;-76
2021/08/08 11:36:29;;;;;;;1.30;1.20;;;;;;;;;;5056095;28;20375;-76
2021/08/08 11:38:56;;;;;;;1.50;1.40;;;;;;;;;;5056096;28;20029;-76
2021/08/08 11:41:22;;;;;;;3.08;2.13;;;;;;;;;;5055610;28;20021;-76
2021/08/08 11:43:48;;;;;;;2.60;1.92;;;;;;;;;;5055806;28;20025;-76
2021/08/08 11:46:16;;;;;;;7.63;2.25;;;;;;;;;;5055641;28;20573;-78
2021/08/08 11:48:42;;;;;;;4.30;2.20;;;;;;;;;;5070043;28;20044;-75
2021/08/08 11:51:08;;;;;;;1.52;1.42;;;;;;;;;;5074378;28;20029;-78
2021/08/08 11:53:35;;;;;;;11.02;3.00;;;;;;;;;;5074005;28;20466;-76
2021/08/08 11:56:22;;;;;;;4.65;2.25;;;;;;;;;;5074307;28;20394;-77
2021/08/08 11:58:49;;;;;;;4.93;2.60;;;;;;;;;;5050029;28;20450;-72
2021/08/08 12:01:19;;;;;;;2.22;1.77;;;;;;;;;;5063456;28;20020;-72
2021/08/08 12:03:45;;;;;;;3.40;1.98;;;;;;;;;;5062648;28;20059;-72
2021/08/08 12:06:11;;;;;;;1.95;1.77;;;;;;;;;;5064202;28;20067;-72
2021/08/08 12:08:37;;;;;;;1.80;1.52;;;;;;;;;;5063355;28;20021;-72
2021/08/08 12:11:04;;;;;;;2.30;1.65;;;;;;;;;;5062319;28;20107;-72
2021/08/08 12:13:30;;;;;;;1.65;1.55;;;;;;;;;;5064584;28;20021;-73
2021/08/08 12:15:56;;;;;;;1.52;1.33;;;;;;;;;;5062663;28;20451;-72
2021/08/08 12:18:29;;;;;;;4.93;1.50;;;;;;;;;;5062672;28;20491;-72
2021/08/08 12:20:55;;;;;;;2.35;1.65;;;;;;;;;;5071339;28;20024;-77
2021/08/08 12:23:24;;;;;;;1.73;1.30;;;;;;;;;;5073576;28;20017;-77
2021/08/08 12:25:58;;;;;;;4.30;2.05;;;;;;;;;;5073624;28;20028;-74
2021/08/08 12:28:24;;;;;;;2.60;1.60;;;;;;;;;;5072898;28;20025;-74
2021/08/08 12:30:50;;;;;;;1.85;1.70;;;;;;;;;;5065316;28;20039;-74
2021/08/08 12:33:17;;;;;;;1.80;1.25;;;;;;;;;;5063346;28;20024;-74
2021/08/08 12:35:44;;;;;;;2.20;2.03;;;;;;;;;;5063757;28;20025;-74
2021/08/08 12:38:12;;;;;;;3.08;1.77;;;;;;;;;;5061878;28;20016;-74
2021/08/08 12:40:43;;;;;;;4.60;1.65;;;;;;;;;;5062904;28;20099;-74
2021/08/08 12:43:09;;;;;;;2.00;1.33;;;;;;;;;;5064314;28;20385;-73
2021/08/08 12:45:36;;;;;;;3.53;1.30;;;;;;;;;;5062738;28;20098;-73
2021/08/08 12:48:02;;;;;;;1.70;1.60;;;;;;;;;;5063147;28;20016;-73
2021/08/08 12:50:28;;;;;;;2.40;1.55;;;;;;;;;;5064137;28;20381;-73
2021/08/08 12:52:54;;;;;;;1.42;1.30;;;;;;;;;;5062152;28;20047;-73
2021/08/08 12:55:20;;;;;;;1.85;1.40;;;;;;;;;;5062551;28;20041;-74
2021/08/08 12:57:47;;;;;;;1.80;1.38;;;;;;;;;;5059389;28;20021;-74
2021/08/08 13:00:14;;;;;;;2.03;1.50;;;;;;;;;;5055944;28;20028;-74
2021/08/08 13:02:46;;;;;;;1.75;1.40;;;;;;;;;;5074740;28;20025;-81
2021/08/08 13:05:12;;;;;;;1.88;1.30;;;;;;;;;;5074284;28;20020;-76
2021/08/08 13:07:38;;;;;;;2.75;1.33;;;;;;;;;;5067131;28;20048;-78
2021/08/08 13:10:05;;;;;;;2.58;1.45;;;;;;;;;;5066682;28;20036;-78
2021/08/08 13:12:31;;;;;;;1.80;1.30;;;;;;;;;;5063426;28;20025;-82
2021/08/08 13:14:57;;;;;;;16.42;2.00;;;;;;;;;;5062773;28;20469;-80
2021/08/08 13:17:24;;;;;;;12.15;1.58;;;;;;;;;;5060566;28;20465;-76
2021/08/08 13:19:50;;;;;;;5.80;2.97;;;;;;;;;;5065795;28;20040;-74
2021/08/08 13:22:16;;;;;;;9.80;3.10;;;;;;;;;;5053175;28;20473;-78
2021/08/08 13:24:42;;;;;;;10.30;2.92;;;;;;;;;;5053709;28;20029;-78
2021/08/08 13:27:08;;;;;;;7.95;4.25;;;;;;;;;;5054108;28;20063;-79
2021/08/08 13:29:50;;;;;;;15.90;5.72;;;;;;;;;;5060350;28;20033;-77
2021/08/08 13:32:17;;;;;;;6.72;4.32;;;;;;;;;;5054689;28;20033;-79
2021/08/08 13:34:43;;;;;;;14.80;6.15;;;;;;;;;;5070096;28;20067;-78
2021/08/08 13:37:13;;;;;;;16.77;7.55;;;;;;;;;;5073278;28;20017;-78
2021/08/08 13:39:39;;;;;;;12.05;6.00;;;;;;;;;;5072578;28;20043;-78
2021/08/08 13:42:05;;;;;;;13.45;6.15;;;;;;;;;;5073651;28;20031;-78
2021/08/08 13:44:31;;;;;;;12.15;5.57;;;;;;;;;;5073863;28;20115;-78
2021/08/08 13:46:57;;;;;;;10.30;6.03;;;;;;;;;;5073791;28;20024;-78
2021/08/08 13:49:23;;;;;;;14.27;5.53;;;;;;;;;;5073779;28;20100;-78
2021/08/08 13:51:50;;;;;;;14.05;5.75;;;;;;;;;;5074623;28;20103;-79
2021/08/08 13:54:18;;;;;;;10.32;4.22;;;;;;;;;;5073482;28;20074;-78
2021/08/08 13:56:45;;;;;;;10.27;5.22;;;;;;;;;;5074349;28;20060;-78
2021/08/08 13:59:11;;;;;;;15.93;4.72;;;;;;;;;;5073871;28;20032;-78
2021/08/08 14:01:37;;;;;;;7.25;5.10;;;;;;;;;;5073587;28;20082;-79
2021/08/08 14:04:03;;;;;;;9.43;4.53;;;;;;;;;;5073970;28;20489;-78
2021/08/08 14:06:29;;;;;;;6.97;4.15;;;;;;;;;;5073461;28;20028;-78
2021/08/08 14:08:55;;;;;;;4.97;3.45;;;;;;;;;;5073799;28;20064;-79
2021/08/08 14:11:21;;;;;;;8.18;4.82;;;;;;;;;;5073663;28;20090;-78
2021/08/08 14:13:47;;;;;;;5.95;4.07;;;;;;;;;;5073613;28;20471;-78
2021/08/08 14:16:13;;;;;;;13.10;4.68;;;;;;;;;;5073081;28;20028;-78
2021/08/08 14:18:39;;;;;;;11.40;4.25;;;;;;;;;;5073964;28;20081;-78
2021/08/08 14:21:06;;;;;;;9.68;4.05;;;;;;;;;;5073689;28;20020;-78
2021/08/08 14:23:32;;;;;;;7.28;4.30;;;;;;;;;;5073695;28;20028;-78
2021/08/08 14:25:58;;;;;;;7.85;4.05;;;;;;;;;;5073472;28;20052;-78
2021/08/08 14:28:24;;;;;;;8.57;4.45;;;;;;;;;;5072629;28;20363;-78
2021/08/08 14:30:50;;;;;;;7.95;3.90;;;;;;;;;;5073527;28;20075;-78
2021/08/08 14:33:16;;;;;;;7.55;4.50;;;;;;;;;;5073520;28;20492;-78
2021/08/08 14:35:42;;;;;;;10.75;3.85;;;;;;;;;;5073702;28;20056;-78
2021/08/08 14:38:08;;;;;;;9.63;3.85;;;;;;;;;;5073359;28;20588;-77
2021/08/08 14:40:34;;;;;;;6.47;3.80;;;;;;;;;;5073287;28;20060;-78